createdAt,value
2017-12-16T00:00:33.496Z,99643.76
2017-12-16T00:03:00.965Z,99647.05
2017-12-16T00:05:28.376Z,99642.30
2017-12-16T00:07:55.784Z,99644.88
2017-12-16T00:10:23.219Z,99652.09
2017-12-16T00:12:50.631Z,99651.56
2017-12-16T00:15:18.130Z,99650.45
2017-12-16T00:17:45.590Z,99653.73
2017-12-16T00:20:13.036Z,99656.02
2017-12-16T00:22:40.448Z,99659.09
2017-12-16T00:25:07.892Z,99660.02
2017-12-16T00:27:35.422Z,99659.32
2017-12-16T00:30:02.873Z,99667.56
2017-12-16T00:32:30.303Z,99666.02
2017-12-16T00:34:57.716Z,99669.09
2017-12-16T00:37:25.229Z,99666.73
2017-12-16T00:39:52.655Z,99666.61
2017-12-16T00:42:20.068Z,99675.17
2017-12-16T00:44:47.503Z,99678.47
2017-12-16T00:47:15.058Z,99681.66
2017-12-16T00:49:42.462Z,99681.14
2017-12-16T00:52:09.884Z,99682.81
2017-12-16T00:54:37.343Z,99682.08
2017-12-16T00:57:04.791Z,99683.70
2017-12-16T00:59:32.205Z,99681.66
2017-12-16T01:01:59.636Z,99673.75
2017-12-16T01:04:27.073Z,99667.45
2017-12-16T01:06:54.478Z,99672.39
2017-12-16T01:09:21.919Z,99677.45
2017-12-16T01:11:49.323Z,99678.89
2017-12-16T01:14:16.731Z,99677.96
2017-12-16T01:16:44.163Z,99677.95
2017-12-16T01:19:11.568Z,99680.10
2017-12-16T01:21:39.056Z,99678.17
2017-12-16T01:24:06.512Z,99688.55
2017-12-16T01:26:33.960Z,99686.61
2017-12-16T01:29:01.456Z,99685.38
2017-12-16T01:31:28.879Z,99692.56
2017-12-16T01:34:08.219Z,99691.97
2017-12-16T01:36:47.453Z,99692.17
2017-12-16T01:39:14.908Z,99692.16
2017-12-16T01:41:42.324Z,99692.67
2017-12-16T01:44:09.756Z,99692.88
2017-12-16T01:46:37.187Z,99697.20
2017-12-16T01:49:04.598Z,99692.77
2017-12-16T01:51:32.104Z,99696.69
2017-12-16T01:53:59.541Z,99695.23
2017-12-16T01:56:26.943Z,99698.21
2017-12-16T01:58:54.347Z,99703.15
2017-12-16T02:01:21.782Z,99708.39
2017-12-16T02:03:49.195Z,99708.50
2017-12-16T02:06:16.631Z,99716.74
2017-12-16T02:08:44.193Z,99715.73
2017-12-16T02:11:11.599Z,99718.51
2017-12-16T02:13:39.003Z,99711.93
2017-12-16T02:16:06.456Z,99716.14
2017-12-16T02:18:33.868Z,99712.63
2017-12-16T02:21:01.336Z,99715.73
2017-12-16T02:23:28.831Z,99718.70
2017-12-16T02:25:56.231Z,99714.80
2017-12-16T02:28:23.694Z,99719.22
2017-12-16T02:30:51.298Z,99716.45
2017-12-16T02:33:18.767Z,99718.09
2017-12-16T02:35:46.203Z,99718.72
2017-12-16T02:38:13.608Z,99720.88
2017-12-16T02:40:41.022Z,99719.02
2017-12-16T02:43:08.488Z,99719.23
2017-12-16T02:45:35.894Z,99719.13
2017-12-16T02:48:03.304Z,99718.73
2017-12-16T02:50:30.741Z,99720.55
2017-12-16T02:52:58.139Z,99714.49
2017-12-16T02:55:25.659Z,99722.93
2017-12-16T02:57:53.096Z,99716.45
2017-12-16T03:00:20.495Z,99721.29
2017-12-16T03:02:47.905Z,99715.63
2017-12-16T03:05:15.340Z,99719.75
2017-12-16T03:07:42.751Z,99724.39
2017-12-16T03:10:10.208Z,99723.05
2017-12-16T03:12:37.663Z,99724.91
2017-12-16T03:15:05.120Z,99726.33
2017-12-16T03:17:32.528Z,99720.77
2017-12-16T03:20:00.024Z,99722.92
2017-12-16T03:22:27.423Z,99723.97
2017-12-16T03:24:54.856Z,99720.77
2017-12-16T03:27:22.291Z,99719.31
2017-12-16T03:29:49.751Z,99725.30
2017-12-16T03:32:17.216Z,99713.36
2017-12-16T03:34:44.931Z,99719.42
2017-12-16T03:37:12.341Z,99722.02
2017-12-16T03:39:39.767Z,99725.41
2017-12-16T03:42:07.176Z,99720.27
2017-12-16T03:44:34.706Z,99723.55
2017-12-16T03:47:02.139Z,99731.88
2017-12-16T03:49:29.561Z,99730.23
2017-12-16T03:51:56.987Z,99730.76
2017-12-16T03:54:24.440Z,99722.11
2017-12-16T03:56:51.849Z,99726.02
2017-12-16T03:59:19.267Z,99730.12
2017-12-16T04:01:46.687Z,99721.09
2017-12-16T04:04:14.102Z,99729.83
2017-12-16T04:06:41.611Z,99726.96
2017-12-16T04:09:09.059Z,99733.95
2017-12-16T04:11:36.459Z,99736.73
2017-12-16T04:14:03.889Z,99733.24
2017-12-16T04:16:31.292Z,99733.95
2017-12-16T04:18:58.695Z,99737.15
2017-12-16T04:21:26.151Z,99734.87
2017-12-16T04:23:53.556Z,99727.37
2017-12-16T04:26:20.963Z,99728.19
2017-12-16T04:28:48.391Z,99736.00
2017-12-16T04:31:15.791Z,99727.47
2017-12-16T04:33:43.322Z,99732.42
2017-12-16T04:36:10.765Z,99731.58
2017-12-16T04:38:38.246Z,99732.09
2017-12-16T04:41:05.655Z,99742.51
2017-12-16T04:43:33.151Z,99741.66
2017-12-16T04:46:00.622Z,99742.59
2017-12-16T04:48:28.061Z,99736.91
2017-12-16T04:50:55.463Z,99736.61
2017-12-16T04:53:22.894Z,99738.77
2017-12-16T04:55:50.320Z,99741.78
2017-12-16T04:58:17.728Z,99740.73
2017-12-16T05:00:45.161Z,99743.82
2017-12-16T05:03:12.623Z,99738.47
2017-12-16T05:05:40.028Z,99734.65
2017-12-16T05:08:07.491Z,99740.63
2017-12-16T05:10:34.992Z,99740.11
2017-12-16T05:13:02.420Z,99741.37
2017-12-16T05:15:29.827Z,99741.78
2017-12-16T05:17:57.262Z,99742.48
2017-12-16T05:20:24.654Z,99746.28
2017-12-16T05:22:52.064Z,99748.66
2017-12-16T05:25:19.513Z,99745.25
2017-12-16T05:27:46.981Z,99745.88
2017-12-16T05:30:14.530Z,99750.52
2017-12-16T05:32:41.947Z,99748.76
2017-12-16T05:35:09.356Z,99747.64
2017-12-16T05:37:36.812Z,99756.79
2017-12-16T05:40:04.256Z,99762.16
2017-12-16T05:42:31.656Z,99765.66
2017-12-16T05:44:59.089Z,99766.06
2017-12-16T05:47:26.533Z,99765.57
2017-12-16T05:49:53.938Z,99775.46
2017-12-16T05:52:21.343Z,99776.17
2017-12-16T05:54:48.800Z,99779.04
2017-12-16T05:57:16.207Z,99776.06
2017-12-16T05:59:43.728Z,99774.09
2017-12-16T06:02:11.175Z,99774.41
2017-12-16T06:04:38.620Z,99775.95
2017-12-16T06:07:06.027Z,99775.88
2017-12-16T06:09:33.450Z,99778.24
2017-12-16T06:12:00.856Z,99773.70
2017-12-16T06:14:28.313Z,99778.24
2017-12-16T06:16:55.745Z,99781.63
2017-12-16T06:19:23.170Z,99787.72
2017-12-16T06:21:50.579Z,99784.82
2017-12-16T06:24:18.007Z,99783.08
2017-12-16T06:26:45.408Z,99784.50
2017-12-16T06:29:12.903Z,99780.48
2017-12-16T06:31:40.345Z,99783.80
2017-12-16T06:34:07.745Z,99776.17
2017-12-16T06:36:35.153Z,99785.13
2017-12-16T06:39:02.571Z,99787.17
2017-12-16T06:41:30.173Z,99785.97
2017-12-16T06:43:57.567Z,99788.31
2017-12-16T06:46:24.971Z,99792.36
2017-12-16T06:48:52.416Z,99796.89
2017-12-16T06:51:19.818Z,99803.06
2017-12-16T06:53:47.233Z,99799.45
2017-12-16T06:56:14.678Z,99808.09
2017-12-16T06:58:42.089Z,99806.45
2017-12-16T07:01:09.516Z,99815.41
2017-12-16T07:03:36.967Z,99815.52
2017-12-16T07:06:04.371Z,99817.16
2017-12-16T07:08:31.788Z,99823.96
2017-12-16T07:10:59.223Z,99830.66
2017-12-16T07:13:26.622Z,99828.91
2017-12-16T07:15:54.056Z,99834.27
2017-12-16T07:18:21.543Z,99833.74
2017-12-16T07:20:48.947Z,99837.34
2017-12-16T07:23:16.448Z,99841.14
2017-12-16T07:25:43.886Z,99845.88
2017-12-16T07:28:11.302Z,99848.66
2017-12-16T07:30:38.703Z,99853.61
2017-12-16T07:33:06.148Z,99850.52
2017-12-16T07:35:33.638Z,99857.43
2017-12-16T07:38:01.051Z,99849.09
2017-12-16T07:40:28.483Z,99861.14
2017-12-16T07:42:55.893Z,99854.89
2017-12-16T07:45:23.300Z,99858.46
2017-12-16T07:47:50.801Z,99864.45
2017-12-16T07:50:18.199Z,99864.23
2017-12-16T07:52:45.634Z,99863.50
2017-12-16T07:55:13.183Z,99873.69
2017-12-16T07:57:40.632Z,99868.93
2017-12-16T08:00:08.102Z,99868.62
2017-12-16T08:02:35.523Z,99872.42
2017-12-16T08:05:02.939Z,99874.28
2017-12-16T08:07:30.366Z,99874.39
2017-12-16T08:09:57.821Z,99877.66
2017-12-16T08:12:25.248Z,99879.52
2017-12-16T08:14:52.675Z,99880.53
2017-12-16T08:17:20.083Z,99882.69
2017-12-16T08:19:47.492Z,99890.94
2017-12-16T08:22:14.932Z,99889.11
2017-12-16T08:24:42.341Z,99899.22
2017-12-16T08:27:09.748Z,99912.75
2017-12-16T08:29:37.166Z,99911.66
2017-12-16T08:32:04.571Z,99921.30
2017-12-16T08:34:31.988Z,99927.11
2017-12-16T08:36:59.412Z,99932.69
2017-12-16T08:39:26.823Z,99926.81
2017-12-16T08:41:54.280Z,99936.00
2017-12-16T08:44:21.687Z,99942.49
2017-12-16T08:46:49.100Z,99944.95
2017-12-16T08:49:16.633Z,99942.06
2017-12-16T08:51:44.047Z,99949.10
2017-12-16T08:54:11.543Z,99955.30
2017-12-16T08:56:38.982Z,99957.84
2017-12-16T08:59:06.388Z,99963.13
2017-12-16T09:01:33.884Z,99965.28
2017-12-16T09:04:01.295Z,99972.91
2017-12-16T09:06:28.707Z,99978.66
2017-12-16T09:08:56.144Z,99972.34
2017-12-16T09:11:23.556Z,99972.16
2017-12-16T09:13:50.974Z,99983.83
2017-12-16T09:16:18.392Z,99976.60
2017-12-16T09:18:45.902Z,99970.44
2017-12-16T09:21:13.366Z,99982.78
2017-12-16T09:23:40.792Z,99983.63
2017-12-16T09:26:08.288Z,99987.13
2017-12-16T09:28:35.696Z,99987.86
2017-12-16T09:31:03.302Z,99983.64
2017-12-16T09:33:30.714Z,99993.44
2017-12-16T09:35:58.132Z,99995.80
2017-12-16T09:38:25.663Z,99989.59
2017-12-16T09:40:53.119Z,99990.97
2017-12-16T09:43:20.687Z,99984.68
2017-12-16T09:45:48.148Z,99993.05
2017-12-16T09:48:15.591Z,99986.56
2017-12-16T09:50:43.104Z,99991.09
2017-12-16T09:53:10.472Z,99985.81
2017-12-16T09:55:37.875Z,99981.39
2017-12-16T09:58:05.337Z,99986.14
2017-12-16T10:00:32.776Z,99978.41
2017-12-16T10:03:00.177Z,99977.16
2017-12-16T10:05:27.636Z,99980.88
2017-12-16T10:07:55.040Z,99977.88
2017-12-16T10:10:22.473Z,99981.38
2017-12-16T10:12:49.971Z,99983.45
2017-12-16T10:15:17.390Z,99985.91
2017-12-16T10:17:44.823Z,99982.62
2017-12-16T10:20:12.251Z,99980.26
2017-12-16T10:22:39.660Z,99983.24
2017-12-16T10:25:07.124Z,99984.17
2017-12-16T10:27:34.568Z,99986.73
2017-12-16T10:30:01.979Z,99978.39
2017-12-16T10:32:29.402Z,99981.49
2017-12-16T10:34:56.890Z,99988.99
2017-12-16T10:37:24.299Z,99988.26
2017-12-16T10:39:51.706Z,99986.20
2017-12-16T10:42:19.153Z,99986.59
2017-12-16T10:44:46.713Z,99987.50
2017-12-16T10:47:14.150Z,99988.81
2017-12-16T10:49:41.578Z,99995.11
2017-12-16T10:52:08.993Z,100000.44
2017-12-16T10:54:36.457Z,100001.34
2017-12-16T10:57:03.907Z,100004.28
2017-12-16T10:59:31.342Z,100014.47
2017-12-16T11:01:58.912Z,100018.78
2017-12-16T11:04:26.329Z,100019.30
2017-12-16T11:06:53.935Z,100015.81
2017-12-16T11:09:21.350Z,100021.05
2017-12-16T11:11:48.979Z,100024.85
2017-12-16T11:14:16.404Z,100024.33
2017-12-16T11:16:43.865Z,100023.32
2017-12-16T11:19:11.315Z,100019.09
2017-12-16T11:21:38.800Z,100025.78
2017-12-16T11:24:06.213Z,100025.55
2017-12-16T11:26:33.701Z,100036.78
2017-12-16T11:29:01.251Z,100042.84
2017-12-16T11:31:28.716Z,100037.94
2017-12-16T11:33:56.147Z,100040.36
2017-12-16T11:36:23.559Z,100037.98
2017-12-16T11:38:51.090Z,100033.22
2017-12-16T11:41:18.512Z,100038.53
2017-12-16T11:43:45.922Z,100042.14
2017-12-16T11:46:13.378Z,100042.03
2017-12-16T11:48:40.818Z,100050.18
2017-12-16T11:51:08.227Z,100056.05
2017-12-16T11:53:35.748Z,100052.08
2017-12-16T11:56:03.242Z,100050.85
2017-12-16T11:58:30.652Z,100055.73
2017-12-16T12:00:58.112Z,100052.53
2017-12-16T12:03:25.541Z,100058.34
2017-12-16T12:05:52.947Z,100064.11
2017-12-16T12:08:20.375Z,100059.56
2017-12-16T12:10:47.794Z,100060.53
2017-12-16T12:13:15.199Z,100060.98
2017-12-16T12:15:42.654Z,100061.13
2017-12-16T12:18:10.207Z,100067.72
2017-12-16T12:20:37.680Z,100068.34
2017-12-16T12:23:05.119Z,100070.28
2017-12-16T12:25:32.528Z,100072.52
2017-12-16T12:27:59.943Z,100069.05
2017-12-16T12:30:27.395Z,100074.60
2017-12-16T12:32:54.800Z,100068.31
2017-12-16T12:35:22.215Z,100069.66
2017-12-16T12:37:49.672Z,100078.63
2017-12-16T12:40:17.124Z,100078.21
2017-12-16T12:42:44.523Z,100080.94
2017-12-16T12:45:11.965Z,100077.69
2017-12-16T12:47:39.393Z,100086.88
2017-12-16T12:50:06.797Z,100085.91
2017-12-16T12:52:34.254Z,100087.66
2017-12-16T12:55:01.671Z,100096.91
2017-12-16T12:57:29.088Z,100095.69
2017-12-16T12:59:56.589Z,100100.48
2017-12-16T13:02:24.005Z,100100.77
2017-12-16T13:04:51.411Z,100105.26
2017-12-16T13:07:18.956Z,100110.32
2017-12-16T13:09:46.403Z,100111.89
2017-12-16T13:12:13.811Z,100111.60
2017-12-16T13:14:41.240Z,100107.58
2017-12-16T13:17:08.700Z,100117.01
2017-12-16T13:19:36.145Z,100117.59
2017-12-16T13:22:03.586Z,100123.30
2017-12-16T13:24:31.044Z,100124.00
2017-12-16T13:26:58.459Z,100124.81
2017-12-16T13:29:25.958Z,100129.53
2017-12-16T13:31:53.450Z,100129.80
2017-12-16T13:34:20.824Z,100130.34
2017-12-16T13:36:48.240Z,100130.86
2017-12-16T13:39:15.675Z,100136.44
2017-12-16T13:41:43.155Z,100132.13
2017-12-16T13:44:10.617Z,100134.81
2017-12-16T13:46:38.040Z,100137.61
2017-12-16T13:49:05.525Z,100144.09
2017-12-16T13:51:32.985Z,100139.48
2017-12-16T13:54:00.489Z,100146.17
2017-12-16T13:56:27.919Z,100146.98
2017-12-16T13:58:55.344Z,100149.95
2017-12-16T14:01:22.803Z,100153.73
2017-12-16T14:03:50.268Z,100156.11
2017-12-16T14:06:17.700Z,100150.02
2017-12-16T14:08:45.173Z,100154.44
2017-12-16T14:11:12.604Z,100153.52
2017-12-16T14:13:40.099Z,100162.06
2017-12-16T14:16:07.514Z,100165.78
2017-12-16T14:18:35.011Z,100171.66
2017-12-16T14:21:02.429Z,100167.36
2017-12-16T14:23:29.849Z,100172.30
2017-12-16T14:25:58.298Z,100179.52
2017-12-16T14:28:25.702Z,100182.50
2017-12-16T14:30:53.115Z,100185.17
2017-12-16T14:33:20.576Z,100180.86
2017-12-16T14:35:47.991Z,100188.64
2017-12-16T14:38:15.404Z,100191.73
2017-12-16T14:40:42.836Z,100197.27
2017-12-16T14:43:10.252Z,100195.64
2017-12-16T14:45:37.693Z,100206.76
2017-12-16T14:48:05.135Z,100208.38
2017-12-16T14:50:32.615Z,100211.34
2017-12-16T14:53:00.023Z,100210.94
2017-12-16T14:55:27.448Z,100214.13
2017-12-16T14:57:54.944Z,100213.08
2017-12-16T15:00:22.385Z,100211.22
2017-12-16T15:02:49.791Z,100217.61
2017-12-16T15:05:17.212Z,100224.72
2017-12-16T15:07:44.689Z,100225.77
2017-12-16T15:10:12.179Z,100231.64
2017-12-16T15:12:39.652Z,100235.55
2017-12-16T15:15:07.092Z,100241.31
2017-12-16T15:17:34.504Z,100243.75
2017-12-16T15:20:01.968Z,100248.11
2017-12-16T15:22:29.417Z,100243.58
2017-12-16T15:24:56.827Z,100254.77
2017-12-16T15:27:24.251Z,100248.08
2017-12-16T15:29:51.784Z,100252.61
2017-12-16T15:32:19.198Z,100253.53
2017-12-16T15:34:46.614Z,100254.23
2017-12-16T15:37:14.041Z,100249.27
2017-12-16T15:39:41.448Z,100255.73
2017-12-16T15:42:08.870Z,100261.03
2017-12-16T15:44:36.344Z,100260.33
2017-12-16T15:47:03.891Z,100252.53
2017-12-16T15:49:31.296Z,100261.91
2017-12-16T15:51:58.801Z,100259.66
2017-12-16T15:57:00.144Z,100269.47
2017-12-16T15:59:27.563Z,100269.34
2017-12-16T16:01:54.987Z,100272.73
2017-12-16T16:04:22.438Z,100275.56
2017-12-16T16:06:49.855Z,100282.08
2017-12-16T16:09:17.267Z,100283.95
2017-12-16T16:11:44.723Z,100286.45
2017-12-16T16:14:12.177Z,100286.58
2017-12-16T16:16:39.596Z,100285.48
2017-12-16T16:19:07.011Z,100298.02
2017-12-16T16:21:34.537Z,100301.52
2017-12-16T16:24:01.943Z,100304.02
2017-12-16T16:26:29.360Z,100308.97
2017-12-16T16:28:56.783Z,100316.59
2017-12-16T16:31:24.281Z,100314.27
2017-12-16T16:33:51.731Z,100313.58
2017-12-16T16:36:19.176Z,100324.87
2017-12-16T16:38:46.586Z,100322.32
2017-12-16T16:41:14.003Z,100333.39
2017-12-16T16:43:41.660Z,100334.48
2017-12-16T16:46:09.101Z,100334.92
2017-12-16T16:48:36.502Z,100339.81
2017-12-16T16:51:04.032Z,100335.66
2017-12-16T16:53:31.460Z,100339.81
2017-12-16T16:55:58.868Z,100348.53
2017-12-16T16:58:26.301Z,100342.83
2017-12-16T17:00:53.713Z,100343.70
2017-12-16T17:03:21.124Z,100339.92
2017-12-16T17:05:48.552Z,100347.67
2017-12-16T17:08:15.968Z,100349.31
2017-12-16T17:10:43.395Z,100350.06
2017-12-16T17:13:10.850Z,100354.09
2017-12-16T17:15:38.250Z,100359.44
2017-12-16T17:18:05.656Z,100356.86
2017-12-16T17:20:33.119Z,100359.41
2017-12-16T17:23:00.529Z,100355.03
2017-12-16T17:25:27.952Z,100362.13
2017-12-16T17:27:55.466Z,100367.66
2017-12-16T17:30:22.871Z,100365.91
2017-12-16T17:32:50.394Z,100361.14
2017-12-16T17:35:17.850Z,100365.27
2017-12-16T17:37:45.410Z,100371.03
2017-12-16T17:40:13.378Z,100372.55
2017-12-16T17:42:40.835Z,100377.93
2017-12-16T17:45:08.252Z,100379.58
2017-12-16T17:47:35.756Z,100378.98
2017-12-16T17:50:03.236Z,100387.61
2017-12-16T17:52:30.662Z,100394.41
2017-12-16T17:54:58.100Z,100394.93
2017-12-16T17:57:25.547Z,100395.52
2017-12-16T17:59:52.971Z,100396.34
2017-12-16T18:02:20.800Z,100401.52
2017-12-16T18:04:48.260Z,100407.44
2017-12-16T18:07:15.664Z,100407.58
2017-12-16T18:09:43.181Z,100412.67
2017-12-16T18:12:10.638Z,100412.49
2017-12-16T18:14:38.291Z,100415.69
2017-12-16T18:17:05.724Z,100417.13
2017-12-16T18:19:33.510Z,100422.77
2017-12-16T18:22:01.200Z,100425.09
2017-12-16T18:24:28.937Z,100431.14
2017-12-16T18:26:56.598Z,100426.98
2017-12-16T18:29:24.448Z,100426.22
2017-12-16T18:31:52.049Z,100426.03
2017-12-16T18:34:19.994Z,100426.45
2017-12-16T18:36:47.967Z,100434.12
2017-12-16T18:39:16.163Z,100439.70
2017-12-16T18:41:44.005Z,100444.66
2017-12-16T18:44:11.728Z,100446.43
2017-12-16T18:46:39.152Z,100448.23
2017-12-16T18:49:06.577Z,100449.06
2017-12-16T18:51:33.999Z,100448.28
2017-12-16T18:54:01.648Z,100449.59
2017-12-16T18:56:29.264Z,100448.67
2017-12-16T18:58:56.932Z,100448.16
2017-12-16T19:01:24.696Z,100453.34
2017-12-16T19:03:52.139Z,100455.09
2017-12-16T19:06:19.583Z,100456.22
2017-12-16T19:08:47.033Z,100460.23
2017-12-16T19:11:14.606Z,100463.02
2017-12-16T19:13:42.292Z,100469.61
2017-12-16T19:16:09.863Z,100468.50
2017-12-16T19:18:37.324Z,100466.88
2017-12-16T19:21:05.076Z,100466.19
2017-12-16T19:23:32.642Z,100469.98
2017-12-16T19:26:00.537Z,100470.59
2017-12-16T19:28:27.915Z,100473.41
2017-12-16T19:30:55.331Z,100468.85
2017-12-16T19:33:22.748Z,100478.36
2017-12-16T19:35:50.199Z,100482.44
2017-12-16T19:38:17.611Z,100479.89
2017-12-16T19:40:45.174Z,100487.13
2017-12-16T19:43:13.116Z,100483.53
2017-12-16T19:45:40.543Z,100491.00
2017-12-16T19:48:08.133Z,100483.75
2017-12-16T19:50:35.914Z,100494.59
2017-12-16T19:53:03.582Z,100492.50
2017-12-16T19:55:31.160Z,100497.97
2017-12-16T19:57:58.812Z,100503.05
2017-12-16T20:00:26.241Z,100496.23
2017-12-16T20:02:53.703Z,100498.91
2017-12-16T20:05:21.447Z,100497.23
2017-12-16T20:07:49.566Z,100501.45
2017-12-16T20:10:17.093Z,100503.34
2017-12-16T20:12:45.405Z,100509.49
2017-12-16T20:15:13.220Z,100507.23
2017-12-16T20:17:41.030Z,100520.89
2017-12-16T20:20:08.781Z,100523.33
2017-12-16T20:22:36.277Z,100524.53
2017-12-16T20:25:03.775Z,100524.32
2017-12-16T20:27:31.463Z,100528.54
2017-12-16T20:29:59.166Z,100532.83
2017-12-16T20:32:27.159Z,100534.40
2017-12-16T20:34:54.895Z,100534.67
2017-12-16T20:37:22.915Z,100538.34
2017-12-16T20:39:50.729Z,100543.18
2017-12-16T20:42:18.344Z,100538.58
2017-12-16T20:44:46.155Z,100544.79
2017-12-16T20:47:13.822Z,100543.31
2017-12-16T20:49:41.695Z,100547.12
2017-12-16T20:52:09.607Z,100557.08
2017-12-16T20:54:37.407Z,100553.84
2017-12-16T20:57:05.040Z,100549.95
2017-12-16T20:59:32.623Z,100550.64
2017-12-16T21:02:00.412Z,100553.59
2017-12-16T21:04:27.988Z,100551.42
2017-12-16T21:06:55.771Z,100562.02
2017-12-16T21:09:23.626Z,100561.47
2017-12-16T21:11:51.235Z,100558.41
2017-12-16T21:14:19.020Z,100568.84
2017-12-16T21:16:46.429Z,100572.27
2017-12-16T21:19:13.883Z,100572.83
2017-12-16T21:21:41.340Z,100569.48
2017-12-16T21:24:08.760Z,100570.84
2017-12-16T21:26:36.216Z,100580.19
2017-12-16T21:29:03.637Z,100577.28
2017-12-16T21:31:31.064Z,100572.72
2017-12-16T21:33:58.504Z,100579.96
2017-12-16T21:36:25.994Z,100582.39
2017-12-16T21:38:53.420Z,100582.67
2017-12-16T21:41:20.994Z,100589.95
2017-12-16T21:43:48.398Z,100587.17
2017-12-16T21:46:15.811Z,100588.88
2017-12-16T21:48:43.251Z,100590.53
2017-12-16T21:51:10.658Z,100588.34
2017-12-16T21:53:38.069Z,100594.14
2017-12-16T21:56:05.531Z,100590.37
2017-12-16T21:58:32.987Z,100588.86
2017-12-16T22:01:00.395Z,100592.09
2017-12-16T22:03:27.832Z,100591.41
2017-12-16T22:05:55.243Z,100594.15
2017-12-16T22:08:22.660Z,100591.12
2017-12-16T22:10:50.115Z,100592.13
2017-12-16T22:13:17.542Z,100594.53
2017-12-16T22:15:44.951Z,100602.39
2017-12-16T22:18:12.387Z,100599.78
2017-12-16T22:20:39.803Z,100598.78
2017-12-16T22:23:07.275Z,100603.52
2017-12-16T22:25:34.708Z,100610.22
2017-12-16T22:28:02.178Z,100610.80
2017-12-16T22:30:29.589Z,100619.45
2017-12-16T22:32:57.056Z,100624.78
2017-12-16T22:35:24.474Z,100625.54
2017-12-16T22:37:51.891Z,100631.17
2017-12-16T22:40:19.359Z,100613.89
2017-12-16T22:42:46.784Z,100626.73
2017-12-16T22:45:14.223Z,100633.43
2017-12-16T22:47:41.731Z,100624.91
2017-12-16T22:50:09.155Z,100621.36
2017-12-16T22:52:36.560Z,100626.63
2017-12-16T22:55:03.995Z,100621.81
2017-12-16T22:57:31.401Z,100623.08
2017-12-16T22:59:58.823Z,100625.14
2017-12-16T23:02:26.279Z,100627.75
2017-12-16T23:04:53.735Z,100617.52
2017-12-16T23:07:21.174Z,100625.89
2017-12-16T23:09:48.588Z,100626.61
2017-12-16T23:12:15.995Z,100637.95
2017-12-16T23:14:43.431Z,100622.67
2017-12-16T23:17:10.912Z,100622.84
2017-12-16T23:19:38.327Z,100640.13
2017-12-16T23:22:05.775Z,100631.53
2017-12-16T23:24:33.184Z,100631.66
2017-12-16T23:27:00.623Z,100638.81
2017-12-16T23:29:28.071Z,100638.27
2017-12-16T23:31:55.551Z,100636.92
2017-12-16T23:34:22.972Z,100640.02
2017-12-16T23:36:50.469Z,100643.21
2017-12-16T23:39:17.893Z,100639.57
2017-12-16T23:41:45.370Z,100637.06
2017-12-16T23:44:12.788Z,100636.93
2017-12-16T23:46:40.315Z,100636.90
2017-12-16T23:49:07.763Z,100640.55
2017-12-16T23:51:35.171Z,100643.36
2017-12-16T23:54:02.591Z,100645.42
2017-12-16T23:56:30.087Z,100645.35
2017-12-16T23:58:57.504Z,100649.09
